sensor_id;sensor_type;location;lat;lon;timestamp;pressure;altitude;pressure_sealevel;temperature;humidity
75298;BME280;63896;45.990;18.688;2023-07-24T00:01:05;100527.16;;;20.91;100.00
75298;BME280;63896;45.990;18.688;2023-07-24T00:04:08;100526.63;;;20.89;100.00
75298;BME280;63896;45.990;18.688;2023-07-24T00:07:11;100529.59;;;20.88;100.00
75298;BME280;63896;45.990;18.688;2023-07-24T00:10:14;100519.09;;;20.86;100.00
75298;BME280;63896;45.990;18.688;2023-07-24T00:13:17;100512.34;;;20.89;100.00
75298;BME280;63896;45.990;18.688;2023-07-24T00:16:20;100515.03;;;20.89;100.00
75298;BME280;63896;45.990;18.688;2023-07-24T00:19:23;100517.69;;;20.94;100.00
75298;BME280;63896;45.990;18.688;2023-07-24T00:22:27;100510.22;;;20.81;100.00
75298;BME280;63896;45.990;18.688;2023-07-24T00:25:29;100514.84;;;20.70;100.00
75298;BME280;63896;45.990;18.688;2023-07-24T00:28:33;100522.75;;;20.62;100.00
75298;BME280;63896;45.990;18.688;2023-07-24T00:31:36;100522.75;;;20.52;100.00
75298;BME280;63896;45.990;18.688;2023-07-24T00:34:39;100517.41;;;20.47;100.00
75298;BME280;63896;45.990;18.688;2023-07-24T00:37:41;100523.63;;;20.42;100.00
75298;BME280;63896;45.990;18.688;2023-07-24T00:40:44;100528.22;;;20.36;100.00
75298;BME280;63896;45.990;18.688;2023-07-24T00:43:47;100529.84;;;20.32;100.00
75298;BME280;63896;45.990;18.688;2023-07-24T00:46:51;100523.13;;;20.35;100.00
75298;BME280;63896;45.990;18.688;2023-07-24T00:49:55;100522.81;;;20.36;100.00
75298;BME280;63896;45.990;18.688;2023-07-24T00:53:00;100526.88;;;20.34;100.00
75298;BME280;63896;45.990;18.688;2023-07-24T00:56:04;100521.25;;;20.30;100.00
75298;BME280;63896;45.990;18.688;2023-07-24T00:59:07;100519.03;;;20.27;100.00
75298;BME280;63896;45.990;18.688;2023-07-24T01:02:11;100512.88;;;20.27;100.00
75298;BME280;63896;45.990;18.688;2023-07-24T01:05:16;100507.50;;;20.27;100.00
75298;BME280;63896;45.990;18.688;2023-07-24T01:08:20;100505.88;;;20.26;100.00
75298;BME280;63896;45.990;18.688;2023-07-24T01:11:37;100508.56;;;20.26;100.00
75298;BME280;63896;45.990;18.688;2023-07-24T01:14:47;100508.00;;;20.24;100.00
75298;BME280;63896;45.990;18.688;2023-07-24T01:18:07;100506.13;;;20.24;100.00
75298;BME280;63896;45.990;18.688;2023-07-24T01:21:12;100503.72;;;20.23;100.00
75298;BME280;63896;45.990;18.688;2023-07-24T01:27:45;100506.41;;;20.23;100.00
75298;BME280;63896;45.990;18.688;2023-07-24T01:30:48;100509.13;;;20.23;100.00
75298;BME280;63896;45.990;18.688;2023-07-24T01:33:55;100504.28;;;20.10;100.00
75298;BME280;63896;45.990;18.688;2023-07-24T01:36:57;100506.22;;;19.94;100.00
75298;BME280;63896;45.990;18.688;2023-07-24T01:40:02;100497.06;;;19.95;100.00
75298;BME280;63896;45.990;18.688;2023-07-24T01:43:06;100501.69;;;19.84;100.00
75298;BME280;63896;45.990;18.688;2023-07-24T01:46:09;100503.81;;;19.77;100.00
75298;BME280;63896;45.990;18.688;2023-07-24T01:49:14;100499.53;;;19.76;100.00
75298;BME280;63896;45.990;18.688;2023-07-24T01:52:19;100495.50;;;19.69;100.00
75298;BME280;63896;45.990;18.688;2023-07-24T01:55:22;100494.97;;;19.62;100.00
75298;BME280;63896;45.990;18.688;2023-07-24T01:58:26;100496.06;;;19.61;100.00
75298;BME280;63896;45.990;18.688;2023-07-24T02:01:29;100489.59;;;19.57;100.00
75298;BME280;63896;45.990;18.688;2023-07-24T02:04:32;100496.84;;;19.56;100.00
75298;BME280;63896;45.990;18.688;2023-07-24T02:07:35;100491.22;;;19.53;100.00
75298;BME280;63896;45.990;18.688;2023-07-24T02:10:39;100494.97;;;19.57;100.00
75298;BME280;63896;45.990;18.688;2023-07-24T02:13:45;100493.63;;;19.54;100.00
75298;BME280;63896;45.990;18.688;2023-07-24T02:16:49;100490.41;;;19.52;100.00
75298;BME280;63896;45.990;18.688;2023-07-24T02:19:52;100486.91;;;19.52;100.00
75298;BME280;63896;45.990;18.688;2023-07-24T02:22:56;100485.53;;;19.54;100.00
75298;BME280;63896;45.990;18.688;2023-07-24T02:26:00;100476.66;;;19.59;100.00
75298;BME280;63896;45.990;18.688;2023-07-24T02:29:03;100474.78;;;19.59;100.00
75298;BME280;63896;45.990;18.688;2023-07-24T02:32:06;100477.22;;;19.56;100.00
75298;BME280;63896;45.990;18.688;2023-07-24T02:35:10;100480.44;;;19.53;100.00
75298;BME280;63896;45.990;18.688;2023-07-24T02:38:13;100475.31;;;19.51;100.00
75298;BME280;63896;45.990;18.688;2023-07-24T02:41:18;100471.28;;;19.48;100.00
75298;BME280;63896;45.990;18.688;2023-07-24T02:44:21;100476.13;;;19.46;100.00
75298;BME280;63896;45.990;18.688;2023-07-24T02:47:24;100461.34;;;19.49;100.00
75298;BME280;63896;45.990;18.688;2023-07-24T02:50:53;100467.28;;;19.46;100.00
75298;BME280;63896;45.990;18.688;2023-07-24T02:53:58;100469.66;;;19.42;100.00
75298;BME280;63896;45.990;18.688;2023-07-24T02:57:01;100464.28;;;19.37;100.00
75298;BME280;63896;45.990;18.688;2023-07-24T03:00:05;100468.84;;;19.32;100.00
75298;BME280;63896;45.990;18.688;2023-07-24T03:03:08;100468.31;;;19.25;100.00
75298;BME280;63896;45.990;18.688;2023-07-24T03:06:11;100459.41;;;19.19;100.00
75298;BME280;63896;45.990;18.688;2023-07-24T03:09:14;100460.53;;;19.18;100.00
75298;BME280;63896;45.990;18.688;2023-07-24T03:12:17;100462.38;;;19.13;100.00
75298;BME280;63896;45.990;18.688;2023-07-24T03:15:20;100461.06;;;19.10;100.00
75298;BME280;63896;45.990;18.688;2023-07-24T03:18:24;100465.38;;;19.11;100.00
75298;BME280;63896;45.990;18.688;2023-07-24T03:21:28;100462.13;;;19.14;100.00
75298;BME280;63896;45.990;18.688;2023-07-24T03:24:31;100466.97;;;19.07;100.00
75298;BME280;63896;45.990;18.688;2023-07-24T03:27:34;100467.22;;;19.00;100.00
75298;BME280;63896;45.990;18.688;2023-07-24T03:30:39;100468.03;;;19.06;100.00
75298;BME280;63896;45.990;18.688;2023-07-24T03:33:42;100460.78;;;19.01;100.00
75298;BME280;63896;45.990;18.688;2023-07-24T03:36:45;100470.19;;;18.99;100.00
75298;BME280;63896;45.990;18.688;2023-07-24T03:39:49;100458.06;;;19.01;100.00
75298;BME280;63896;45.990;18.688;2023-07-24T03:42:52;100450.81;;;18.97;100.00
75298;BME280;63896;45.990;18.688;2023-07-24T03:45:54;100453.22;;;18.93;100.00
75298;BME280;63896;45.990;18.688;2023-07-24T03:48:57;100456.97;;;18.92;100.00
75298;BME280;63896;45.990;18.688;2023-07-24T03:52:00;100462.38;;;18.87;100.00
75298;BME280;63896;45.990;18.688;2023-07-24T03:55:03;100465.06;;;18.92;100.00
75298;BME280;63896;45.990;18.688;2023-07-24T03:58:07;100465.59;;;18.94;100.00
75298;BME280;63896;45.990;18.688;2023-07-24T04:01:10;100465.06;;;18.97;100.00
75298;BME280;63896;45.990;18.688;2023-07-24T04:04:17;100465.91;;;19.03;100.00
75298;BME280;63896;45.990;18.688;2023-07-24T04:07:20;100466.94;;;19.12;100.00
75298;BME280;63896;45.990;18.688;2023-07-24T04:10:22;100470.47;;;19.28;100.00
75298;BME280;63896;45.990;18.688;2023-07-24T04:13:25;100464.28;;;19.37;100.00
75298;BME280;63896;45.990;18.688;2023-07-24T04:16:29;100462.41;;;19.53;100.00
75298;BME280;63896;45.990;18.688;2023-07-24T04:19:32;100472.09;;;19.64;100.00
75298;BME280;63896;45.990;18.688;2023-07-24T04:22:35;100466.94;;;19.78;100.00
75298;BME280;63896;45.990;18.688;2023-07-24T04:25:39;100471.50;;;19.87;100.00
75298;BME280;63896;45.990;18.688;2023-07-24T04:28:41;100475.22;;;20.02;100.00
75298;BME280;63896;45.990;18.688;2023-07-24T04:31:44;100467.66;;;20.09;100.00
75298;BME280;63896;45.990;18.688;2023-07-24T04:34:47;100474.09;;;20.23;100.00
75298;BME280;63896;45.990;18.688;2023-07-24T04:37:50;100470.81;;;20.36;100.00
75298;BME280;63896;45.990;18.688;2023-07-24T04:40:53;100465.31;;;20.56;100.00
75298;BME280;63896;45.990;18.688;2023-07-24T04:43:56;100472.13;;;20.92;100.00
75298;BME280;63896;45.990;18.688;2023-07-24T04:46:59;100481.09;;;21.22;100.00
75298;BME280;63896;45.990;18.688;2023-07-24T04:50:07;100479.53;;;21.50;100.00
75298;BME280;63896;45.990;18.688;2023-07-24T04:53:11;100477.09;;;21.77;100.00
75298;BME280;63896;45.990;18.688;2023-07-24T04:56:13;100481.06;;;21.84;100.00
75298;BME280;63896;45.990;18.688;2023-07-24T04:59:16;100472.53;;;22.01;100.00
75298;BME280;63896;45.990;18.688;2023-07-24T05:02:19;100476.75;;;22.12;100.00
75298;BME280;63896;45.990;18.688;2023-07-24T05:05:22;100475.44;;;22.28;100.00
75298;BME280;63896;45.990;18.688;2023-07-24T05:08:25;100467.13;;;22.44;100.00
75298;BME280;63896;45.990;18.688;2023-07-24T05:11:28;100472.03;;;22.84;100.00
75298;BME280;63896;45.990;18.688;2023-07-24T05:14:31;100464.06;;;23.25;100.00
75298;BME280;63896;45.990;18.688;2023-07-24T05:17:34;100463.97;;;23.49;100.00
75298;BME280;63896;45.990;18.688;2023-07-24T05:20:37;100465.53;;;23.82;100.00
75298;BME280;63896;45.990;18.688;2023-07-24T05:23:40;100458.03;;;24.20;100.00
75298;BME280;63896;45.990;18.688;2023-07-24T05:26:43;100468.63;;;24.03;100.00
75298;BME280;63896;45.990;18.688;2023-07-24T05:29:46;100459.09;;;23.92;100.00
75298;BME280;63896;45.990;18.688;2023-07-24T05:32:49;100459.88;;;23.65;100.00
75298;BME280;63896;45.990;18.688;2023-07-24T05:36:02;100461.53;;;23.93;100.00
75298;BME280;63896;45.990;18.688;2023-07-24T05:39:08;100468.13;;;23.87;100.00
75298;BME280;63896;45.990;18.688;2023-07-24T05:42:11;100462.41;;;24.02;100.00
75298;BME280;63896;45.990;18.688;2023-07-24T05:45:14;100449.78;;;23.98;100.00
75298;BME280;63896;45.990;18.688;2023-07-24T05:48:20;100454.19;;;23.94;100.00
75298;BME280;63896;45.990;18.688;2023-07-24T05:51:24;100460.84;;;24.29;100.00
75298;BME280;63896;45.990;18.688;2023-07-24T05:54:27;100454.25;;;24.57;100.00
75298;BME280;63896;45.990;18.688;2023-07-24T05:57:31;100445.66;;;24.77;100.00
75298;BME280;63896;45.990;18.688;2023-07-24T06:00:34;100446.31;;;24.96;99.57
75298;BME280;63896;45.990;18.688;2023-07-24T06:03:37;100446.59;;;24.95;99.72
75298;BME280;63896;45.990;18.688;2023-07-24T06:06:43;100446.94;;;24.93;98.46
75298;BME280;63896;45.990;18.688;2023-07-24T06:09:46;100438.91;;;25.33;97.20
75298;BME280;63896;45.990;18.688;2023-07-24T06:12:48;100439.34;;;25.57;94.72
75298;BME280;63896;45.990;18.688;2023-07-24T06:15:54;100447.47;;;25.88;89.22
75298;BME280;63896;45.990;18.688;2023-07-24T06:19:00;100451.97;;;25.92;87.58
75298;BME280;63896;45.990;18.688;2023-07-24T06:22:03;100454.19;;;26.21;84.47
75298;BME280;63896;45.990;18.688;2023-07-24T06:25:06;100446.19;;;26.25;84.77
75298;BME280;63896;45.990;18.688;2023-07-24T06:28:10;100454.06;;;26.43;83.96
75298;BME280;63896;45.990;18.688;2023-07-24T06:31:13;100452.34;;;26.56;82.49
75298;BME280;63896;45.990;18.688;2023-07-24T06:34:16;100452.16;;;26.61;81.72
75298;BME280;63896;45.990;18.688;2023-07-24T06:37:19;100447.69;;;26.74;81.27
75298;BME280;63896;45.990;18.688;2023-07-24T06:40:24;100446.72;;;27.13;79.55
75298;BME280;63896;45.990;18.688;2023-07-24T06:43:28;100444.97;;;27.17;78.58
75298;BME280;63896;45.990;18.688;2023-07-24T06:46:30;100442.34;;;27.55;76.01
75298;BME280;63896;45.990;18.688;2023-07-24T06:49:34;100435.78;;;27.85;73.71
75298;BME280;63896;45.990;18.688;2023-07-24T06:52:37;100438.03;;;28.21;72.65
75298;BME280;63896;45.990;18.688;2023-07-24T06:55:41;100438.03;;;28.21;69.69
75298;BME280;63896;45.990;18.688;2023-07-24T06:58:44;100425.13;;;28.80;68.75
75298;BME280;63896;45.990;18.688;2023-07-24T07:01:49;100424.41;;;29.04;67.64
75298;BME280;63896;45.990;18.688;2023-07-24T07:04:52;100422.03;;;29.47;65.48
75298;BME280;63896;45.990;18.688;2023-07-24T07:07:57;100416.94;;;29.58;63.66
75298;BME280;63896;45.990;18.688;2023-07-24T07:11:03;100409.31;;;29.18;62.34
75298;BME280;63896;45.990;18.688;2023-07-24T07:14:06;100401.31;;;29.46;60.66
75298;BME280;63896;45.990;18.688;2023-07-24T07:17:11;100403.34;;;29.49;61.29
75298;BME280;63896;45.990;18.688;2023-07-24T07:20:14;100396.31;;;29.85;58.31
75298;BME280;63896;45.990;18.688;2023-07-24T07:23:18;100405.59;;;30.32;57.12
75298;BME280;63896;45.990;18.688;2023-07-24T07:26:23;100412.28;;;31.42;54.37
75298;BME280;63896;45.990;18.688;2023-07-24T07:29:27;100413.00;;;32.94;50.02
75298;BME280;63896;45.990;18.688;2023-07-24T07:32:30;100415.06;;;33.39;48.48
75298;BME280;63896;45.990;18.688;2023-07-24T07:35:35;100419.22;;;34.28;46.49
75298;BME280;63896;45.990;18.688;2023-07-24T07:38:39;100417.19;;;33.98;45.99
75298;BME280;63896;45.990;18.688;2023-07-24T07:41:43;100414.94;;;33.78;45.26
75298;BME280;63896;45.990;18.688;2023-07-24T07:44:46;100414.34;;;34.18;44.74
75298;BME280;63896;45.990;18.688;2023-07-24T07:47:49;100417.00;;;35.00;41.85
75298;BME280;63896;45.990;18.688;2023-07-24T07:50:54;100409.38;;;34.86;40.89
75298;BME280;63896;45.990;18.688;2023-07-24T07:54:03;100406.72;;;34.97;41.00
75298;BME280;63896;45.990;18.688;2023-07-24T07:57:08;100403.06;;;35.23;40.38
75298;BME280;63896;45.990;18.688;2023-07-24T08:00:28;100394.19;;;35.44;40.31
75298;BME280;63896;45.990;18.688;2023-07-24T08:03:31;100405.06;;;36.24;38.19
75298;BME280;63896;45.990;18.688;2023-07-24T08:06:50;100390.38;;;37.03;37.28
75298;BME280;63896;45.990;18.688;2023-07-24T08:09:55;100392.78;;;37.26;35.79
75298;BME280;63896;45.990;18.688;2023-07-24T08:12:59;100387.22;;;38.11;33.46
75298;BME280;63896;45.990;18.688;2023-07-24T08:17:00;100383.91;;;39.17;31.63
75298;BME280;63896;45.990;18.688;2023-07-24T08:20:15;100379.56;;;38.47;30.97
75298;BME280;63896;45.990;18.688;2023-07-24T08:23:40;100381.44;;;38.68;30.61
75298;BME280;63896;45.990;18.688;2023-07-24T08:26:47;100379.81;;;38.74;30.91
75298;BME280;63896;45.990;18.688;2023-07-24T08:29:51;100377.03;;;38.81;30.47
75298;BME280;63896;45.990;18.688;2023-07-24T08:32:59;100369.56;;;38.67;30.37
75298;BME280;63896;45.990;18.688;2023-07-24T08:36:17;100363.72;;;39.65;29.44
75298;BME280;63896;45.990;18.688;2023-07-24T08:39:20;100355.38;;;40.36;27.77
75298;BME280;63896;45.990;18.688;2023-07-24T08:42:24;100366.31;;;41.11;27.20
75298;BME280;63896;45.990;18.688;2023-07-24T08:45:28;100368.84;;;40.71;28.17
75298;BME280;63896;45.990;18.688;2023-07-24T08:48:36;100352.09;;;40.14;26.90
75298;BME280;63896;45.990;18.688;2023-07-24T08:51:42;100346.88;;;40.50;26.62
75298;BME280;63896;45.990;18.688;2023-07-24T08:54:47;100343.66;;;38.91;27.99
75298;BME280;63896;45.990;18.688;2023-07-24T08:57:50;100336.56;;;38.87;28.63
75298;BME280;63896;45.990;18.688;2023-07-24T09:00:53;100344.19;;;38.69;28.05
75298;BME280;63896;45.990;18.688;2023-07-24T09:03:56;100342.19;;;38.73;28.90
75298;BME280;63896;45.990;18.688;2023-07-24T09:07:07;100330.81;;;39.60;29.01
75298;BME280;63896;45.990;18.688;2023-07-24T09:10:13;100322.22;;;40.79;28.20
75298;BME280;63896;45.990;18.688;2023-07-24T09:13:17;100320.72;;;41.24;26.96
75298;BME280;63896;45.990;18.688;2023-07-24T09:16:22;100326.75;;;39.71;28.63
75298;BME280;63896;45.990;18.688;2023-07-24T09:19:26;100320.03;;;40.94;27.05
75298;BME280;63896;45.990;18.688;2023-07-24T09:22:33;100321.09;;;41.50;25.51
75298;BME280;63896;45.990;18.688;2023-07-24T09:25:38;100307.41;;;41.78;25.29
75298;BME280;63896;45.990;18.688;2023-07-24T09:28:51;100313.88;;;41.29;25.93
75298;BME280;63896;45.990;18.688;2023-07-24T09:31:56;100315.56;;;41.00;26.30
75298;BME280;63896;45.990;18.688;2023-07-24T09:35:00;100308.22;;;41.09;25.68
75298;BME280;63896;45.990;18.688;2023-07-24T09:38:10;100316.09;;;41.61;25.34
75298;BME280;63896;45.990;18.688;2023-07-24T09:41:14;100312.75;;;40.16;27.17
75298;BME280;63896;45.990;18.688;2023-07-24T09:44:25;100313.47;;;39.86;27.05
75298;BME280;63896;45.990;18.688;2023-07-24T09:47:28;100297.28;;;40.11;27.81
75298;BME280;63896;45.990;18.688;2023-07-24T09:50:56;100287.16;;;40.58;27.05
75298;BME280;63896;45.990;18.688;2023-07-24T09:54:13;100289.31;;;40.74;27.98
75298;BME280;63896;45.990;18.688;2023-07-24T09:57:21;100279.22;;;41.53;26.29
75298;BME280;63896;45.990;18.688;2023-07-24T10:00:29;100283.88;;;41.60;26.20
75298;BME280;63896;45.990;18.688;2023-07-24T10:03:47;100283.81;;;42.03;25.64
75298;BME280;63896;45.990;18.688;2023-07-24T10:06:51;100275.63;;;40.83;27.06
75298;BME280;63896;45.990;18.688;2023-07-24T10:10:01;100278.31;;;41.99;26.16
75298;BME280;63896;45.990;18.688;2023-07-24T10:13:04;100274.16;;;41.02;26.97
75298;BME280;63896;45.990;18.688;2023-07-24T10:16:07;100289.72;;;40.72;27.33
75298;BME280;63896;45.990;18.688;2023-07-24T10:19:34;100277.88;;;41.38;27.11
75298;BME280;63896;45.990;18.688;2023-07-24T10:22:41;100283.44;;;42.20;25.86
75298;BME280;63896;45.990;18.688;2023-07-24T10:25:45;100257.34;;;41.71;26.30
75298;BME280;63896;45.990;18.688;2023-07-24T10:28:49;100260.22;;;42.79;25.50
75298;BME280;63896;45.990;18.688;2023-07-24T10:31:54;100264.50;;;41.53;25.79
75298;BME280;63896;45.990;18.688;2023-07-24T10:35:08;100259.09;;;42.57;24.47
75298;BME280;63896;45.990;18.688;2023-07-24T10:38:18;100248.47;;;42.16;25.27
75298;BME280;63896;45.990;18.688;2023-07-24T10:41:34;100268.63;;;40.98;27.04
75298;BME280;63896;45.990;18.688;2023-07-24T10:44:39;100264.16;;;41.70;25.76
75298;BME280;63896;45.990;18.688;2023-07-24T10:47:42;100250.91;;;41.12;26.19
75298;BME280;63896;45.990;18.688;2023-07-24T10:50:49;100245.56;;;40.98;26.11
75298;BME280;63896;45.990;18.688;2023-07-24T10:54:04;100241.03;;;41.93;24.28
75298;BME280;63896;45.990;18.688;2023-07-24T10:57:08;100224.38;;;42.06;24.48
75298;BME280;63896;45.990;18.688;2023-07-24T11:00:13;100209.84;;;42.14;24.61
75298;BME280;63896;45.990;18.688;2023-07-24T11:03:17;100227.19;;;42.06;24.32
75298;BME280;63896;45.990;18.688;2023-07-24T11:06:22;100220.81;;;42.41;23.86
75298;BME280;63896;45.990;18.688;2023-07-24T11:09:36;100199.03;;;42.85;24.18
75298;BME280;63896;45.990;18.688;2023-07-24T11:12:39;100201.72;;;42.40;24.76
75298;BME280;63896;45.990;18.688;2023-07-24T11:15:44;100195.63;;;42.61;24.49
75298;BME280;63896;45.990;18.688;2023-07-24T11:18:50;100190.34;;;42.66;24.01
75298;BME280;63896;45.990;18.688;2023-07-24T11:21:56;100181.22;;;44.44;22.45
75298;BME280;63896;45.990;18.688;2023-07-24T11:25:00;100174.31;;;43.44;22.66
75298;BME280;63896;45.990;18.688;2023-07-24T11:28:10;100158.72;;;44.61;23.10
75298;BME280;63896;45.990;18.688;2023-07-24T11:31:23;100152.13;;;44.04;22.21
75298;BME280;63896;45.990;18.688;2023-07-24T11:34:26;100161.44;;;42.41;23.68
75298;BME280;63896;45.990;18.688;2023-07-24T11:37:29;100157.72;;;41.95;24.03
75298;BME280;63896;45.990;18.688;2023-07-24T11:43:48;100130.22;;;43.07;23.30
75298;BME280;63896;45.990;18.688;2023-07-24T11:47:00;100124.69;;;43.74;22.13
75298;BME280;63896;45.990;18.688;2023-07-24T11:50:05;100131.75;;;42.14;25.09
75298;BME280;63896;45.990;18.688;2023-07-24T11:53:39;100124.22;;;42.47;24.47
75298;BME280;63896;45.990;18.688;2023-07-24T11:56:43;100121.94;;;41.74;25.83
75298;BME280;63896;45.990;18.688;2023-07-24T11:59:46;100117.63;;;42.86;24.60
75298;BME280;63896;45.990;18.688;2023-07-24T12:02:50;100116.09;;;41.49;26.76
75298;BME280;63896;45.990;18.688;2023-07-24T12:05:54;100124.91;;;41.47;25.97
75298;BME280;63896;45.990;18.688;2023-07-24T12:09:04;100122.75;;;41.91;24.30
75298;BME280;63896;45.990;18.688;2023-07-24T12:12:15;100141.81;;;41.56;24.88
75298;BME280;63896;45.990;18.688;2023-07-24T12:15:20;100146.41;;;42.18;25.29
75298;BME280;63896;45.990;18.688;2023-07-24T12:18:23;100141.75;;;40.77;26.28
75298;BME280;63896;45.990;18.688;2023-07-24T12:21:26;100130.28;;;41.74;25.03
75298;BME280;63896;45.990;18.688;2023-07-24T12:24:30;100122.28;;;41.76;24.95
75298;BME280;63896;45.990;18.688;2023-07-24T12:27:34;100113.94;;;42.89;23.45
75298;BME280;63896;45.990;18.688;2023-07-24T12:30:39;100123.84;;;42.29;23.56
75298;BME280;63896;45.990;18.688;2023-07-24T12:33:47;100130.09;;;41.06;24.96
75298;BME280;63896;45.990;18.688;2023-07-24T12:36:56;100117.19;;;41.15;25.31
75298;BME280;63896;45.990;18.688;2023-07-24T12:40:03;100107.63;;;40.27;24.55
75298;BME280;63896;45.990;18.688;2023-07-24T12:43:06;100106.66;;;42.14;22.96
75298;BME280;63896;45.990;18.688;2023-07-24T12:46:09;100095.66;;;41.91;23.59
75298;BME280;63896;45.990;18.688;2023-07-24T12:49:14;100088.25;;;42.65;23.25
75298;BME280;63896;45.990;18.688;2023-07-24T12:52:17;100084.34;;;42.63;21.97
75298;BME280;63896;45.990;18.688;2023-07-24T12:55:20;100084.09;;;42.41;23.17
75298;BME280;63896;45.990;18.688;2023-07-24T12:58:36;100067.69;;;41.95;24.06
75298;BME280;63896;45.990;18.688;2023-07-24T13:01:39;100058.38;;;41.29;23.88
75298;BME280;63896;45.990;18.688;2023-07-24T13:04:42;100066.81;;;41.46;23.89
75298;BME280;63896;45.990;18.688;2023-07-24T13:07:45;100065.97;;;41.29;24.10
75298;BME280;63896;45.990;18.688;2023-07-24T13:10:49;100040.59;;;42.11;23.33
75298;BME280;63896;45.990;18.688;2023-07-24T13:13:52;100049.41;;;40.63;24.80
75298;BME280;63896;45.990;18.688;2023-07-24T13:16:58;100040.88;;;41.29;25.32
75298;BME280;63896;45.990;18.688;2023-07-24T13:20:01;100023.31;;;41.68;24.20
75298;BME280;63896;45.990;18.688;2023-07-24T13:23:04;100028.66;;;41.78;24.22
75298;BME280;63896;45.990;18.688;2023-07-24T13:26:08;100034.50;;;41.84;24.15
75298;BME280;63896;45.990;18.688;2023-07-24T13:29:13;100026.16;;;41.48;24.90
75298;BME280;63896;45.990;18.688;2023-07-24T13:32:16;100016.00;;;41.58;24.50
75298;BME280;63896;45.990;18.688;2023-07-24T13:35:20;100005.47;;;39.81;27.61
75298;BME280;63896;45.990;18.688;2023-07-24T13:38:23;100016.19;;;39.52;27.24
75298;BME280;63896;45.990;18.688;2023-07-24T13:41:25;100022.28;;;38.42;29.04
75298;BME280;63896;45.990;18.688;2023-07-24T13:44:28;100035.59;;;38.09;28.78
75298;BME280;63896;45.990;18.688;2023-07-24T13:47:31;100024.38;;;37.76;29.47
75298;BME280;63896;45.990;18.688;2023-07-24T13:50:37;100004.13;;;37.82;29.39
75298;BME280;63896;45.990;18.688;2023-07-24T13:53:44;100003.38;;;38.26;30.00
75298;BME280;63896;45.990;18.688;2023-07-24T13:56:52;99996.41;;;37.49;30.85
75298;BME280;63896;45.990;18.688;2023-07-24T13:59:55;99984.47;;;36.83;31.41
75298;BME280;63896;45.990;18.688;2023-07-24T14:02:58;99970.19;;;36.95;31.80
75298;BME280;63896;45.990;18.688;2023-07-24T14:06:01;99958.50;;;36.34;32.28
75298;BME280;63896;45.990;18.688;2023-07-24T14:09:06;99961.31;;;36.20;33.54
75298;BME280;63896;45.990;18.688;2023-07-24T14:12:11;99951.41;;;35.45;34.62
75298;BME280;63896;45.990;18.688;2023-07-24T14:15:14;99924.97;;;35.58;34.61
75298;BME280;63896;45.990;18.688;2023-07-24T14:18:17;99933.28;;;36.18;34.44
75298;BME280;63896;45.990;18.688;2023-07-24T14:21:19;99930.75;;;36.80;31.89
75298;BME280;63896;45.990;18.688;2023-07-24T14:24:22;99942.34;;;36.25;32.60
75298;BME280;63896;45.990;18.688;2023-07-24T14:27:25;99913.56;;;35.77;33.98
75298;BME280;63896;45.990;18.688;2023-07-24T14:30:29;99894.22;;;35.95;33.79
75298;BME280;63896;45.990;18.688;2023-07-24T14:33:32;99879.63;;;36.01;34.01
75298;BME280;63896;45.990;18.688;2023-07-24T14:36:35;99869.41;;;35.63;35.00
75298;BME280;63896;45.990;18.688;2023-07-24T14:39:38;99868.59;;;35.55;35.11
75298;BME280;63896;45.990;18.688;2023-07-24T14:42:42;99878.81;;;35.26;36.65
75298;BME280;63896;45.990;18.688;2023-07-24T14:45:45;99872.13;;;35.20;37.01
75298;BME280;63896;45.990;18.688;2023-07-24T14:48:49;99865.44;;;35.14;37.31
75298;BME280;63896;45.990;18.688;2023-07-24T14:51:52;99875.97;;;34.87;36.67
75298;BME280;63896;45.990;18.688;2023-07-24T14:54:58;99889.38;;;34.92;37.23
75298;BME280;63896;45.990;18.688;2023-07-24T14:58:01;99885.91;;;35.20;36.30
75298;BME280;63896;45.990;18.688;2023-07-24T15:01:05;99895.41;;;35.55;35.38
75298;BME280;63896;45.990;18.688;2023-07-24T15:04:08;99887.13;;;35.37;35.15
75298;BME280;63896;45.990;18.688;2023-07-24T15:07:11;99848.09;;;35.14;36.14
75298;BME280;63896;45.990;18.688;2023-07-24T15:10:14;99831.88;;;34.98;36.23
75298;BME280;63896;45.990;18.688;2023-07-24T15:13:18;99847.69;;;35.15;36.11
75298;BME280;63896;45.990;18.688;2023-07-24T15:16:21;99852.34;;;34.86;36.38
75298;BME280;63896;45.990;18.688;2023-07-24T15:19:24;99851.44;;;34.61;37.08
75298;BME280;63896;45.990;18.688;2023-07-24T15:22:27;99854.53;;;34.49;36.42
75298;BME280;63896;45.990;18.688;2023-07-24T15:25:30;99854.44;;;34.24;37.29
75298;BME280;63896;45.990;18.688;2023-07-24T15:28:33;99862.53;;;34.03;37.65
75298;BME280;63896;45.990;18.688;2023-07-24T15:31:36;99847.94;;;33.92;37.98
75298;BME280;63896;45.990;18.688;2023-07-24T15:34:39;99844.84;;;34.01;37.54
75298;BME280;63896;45.990;18.688;2023-07-24T15:37:43;99835.59;;;33.72;37.84
75298;BME280;63896;45.990;18.688;2023-07-24T15:40:50;99833.31;;;33.84;37.63
75298;BME280;63896;45.990;18.688;2023-07-24T15:43:53;99831.09;;;33.49;38.13
75298;BME280;63896;45.990;18.688;2023-07-24T15:46:56;99826.63;;;33.34;38.44
75298;BME280;63896;45.990;18.688;2023-07-24T15:49:59;99833.06;;;33.09;38.62
75298;BME280;63896;45.990;18.688;2023-07-24T15:53:04;99844.94;;;33.13;39.10
75298;BME280;63896;45.990;18.688;2023-07-24T15:56:07;99843.06;;;32.90;40.01
75298;BME280;63896;45.990;18.688;2023-07-24T15:59:14;99838.16;;;33.10;40.27